Terminal Aerodrome Forecast
Issued by NWS

Home | Current Version | Previous Version | Text Only | Print | Product List | Glossary On
Versions: 1 2 3 4 5 6 7 8 9 10 11 12 13 14 15 16
000
FTUS41 KBTV 030542
TAFSLK
TAF
KSLK 030542Z 0306/0406 00000KT P6SM BKN015 OVC020
      TEMPO 0307/0311 BKN007 OVC012
     FM031100 00000KT P6SM SCT003 BKN008
     FM031300 07003KT P6SM OVC015
     FM031600 06004KT P6SM SCT030
     FM040500 00000KT P6SM VCSH BKN050=

USA.gov is the U.S. government's official web portal to all federal, state and local government web resources and services.